sensor_id;sensor_type;location;lat;lon;timestamp;temperature;humidity
4964;DHT22;2497;47.410;9.740;2023-06-04T00:02:17;16.20;99.90
4964;DHT22;2497;47.410;9.740;2023-06-04T00:04:44;16.10;99.90
4964;DHT22;2497;47.410;9.740;2023-06-04T00:07:12;15.90;99.90
4964;DHT22;2497;47.410;9.740;2023-06-04T00:09:39;15.90;99.90
4964;DHT22;2497;47.410;9.740;2023-06-04T00:12:08;15.90;99.90
4964;DHT22;2497;47.410;9.740;2023-06-04T00:14:35;15.90;99.90
4964;DHT22;2497;47.410;9.740;2023-06-04T00:17:02;15.90;99.90
4964;DHT22;2497;47.410;9.740;2023-06-04T00:19:29;15.90;99.90
4964;DHT22;2497;47.410;9.740;2023-06-04T00:21:57;15.70;99.90
4964;DHT22;2497;47.410;9.740;2023-06-04T00:24:24;15.60;99.90
4964;DHT22;2497;47.410;9.740;2023-06-04T00:26:52;15.70;99.90
4964;DHT22;2497;47.410;9.740;2023-06-04T00:29:20;15.70;99.90
4964;DHT22;2497;47.410;9.740;2023-06-04T00:31:47;15.80;99.90
4964;DHT22;2497;47.410;9.740;2023-06-04T00:34:17;15.90;99.90
4964;DHT22;2497;47.410;9.740;2023-06-04T00:36:44;15.80;99.90
4964;DHT22;2497;47.410;9.740;2023-06-04T00:39:12;15.80;99.90
4964;DHT22;2497;47.410;9.740;2023-06-04T00:41:39;15.90;99.90
4964;DHT22;2497;47.410;9.740;2023-06-04T00:44:06;15.80;99.90
4964;DHT22;2497;47.410;9.740;2023-06-04T00:46:35;15.90;99.90
4964;DHT22;2497;47.410;9.740;2023-06-04T00:49:03;15.80;99.90
4964;DHT22;2497;47.410;9.740;2023-06-04T00:51:31;15.70;99.90
4964;DHT22;2497;47.410;9.740;2023-06-04T00:53:59;15.50;99.90
4964;DHT22;2497;47.410;9.740;2023-06-04T00:56:34;15.60;99.90
4964;DHT22;2497;47.410;9.740;2023-06-04T00:59:03;15.70;99.90
4964;DHT22;2497;47.410;9.740;2023-06-04T01:01:37;15.60;99.90
4964;DHT22;2497;47.410;9.740;2023-06-04T01:04:14;15.60;99.90
4964;DHT22;2497;47.410;9.740;2023-06-04T01:06:44;15.50;99.90
4964;DHT22;2497;47.410;9.740;2023-06-04T01:09:13;15.40;99.90
4964;DHT22;2497;47.410;9.740;2023-06-04T01:11:40;15.30;99.90
4964;DHT22;2497;47.410;9.740;2023-06-04T01:14:09;15.20;99.90
4964;DHT22;2497;47.410;9.740;2023-06-04T01:16:40;15.10;99.90
4964;DHT22;2497;47.410;9.740;2023-06-04T01:19:22;15.20;99.90
4964;DHT22;2497;47.410;9.740;2023-06-04T01:22:03;15.30;99.90
4964;DHT22;2497;47.410;9.740;2023-06-04T01:24:34;15.30;99.90
4964;DHT22;2497;47.410;9.740;2023-06-04T01:27:03;15.20;99.90
4964;DHT22;2497;47.410;9.740;2023-06-04T01:29:31;15.30;99.90
4964;DHT22;2497;47.410;9.740;2023-06-04T01:32:00;15.30;99.90
4964;DHT22;2497;47.410;9.740;2023-06-04T01:34:28;15.20;99.90
4964;DHT22;2497;47.410;9.740;2023-06-04T01:36:55;15.30;99.90
4964;DHT22;2497;47.410;9.740;2023-06-04T01:39:22;15.30;99.90
4964;DHT22;2497;47.410;9.740;2023-06-04T01:41:49;15.30;99.90
4964;DHT22;2497;47.410;9.740;2023-06-04T01:44:16;15.30;99.90
4964;DHT22;2497;47.410;9.740;2023-06-04T01:46:44;15.20;99.90
4964;DHT22;2497;47.410;9.740;2023-06-04T01:49:13;15.30;99.90
4964;DHT22;2497;47.410;9.740;2023-06-04T01:51:41;15.30;99.90
4964;DHT22;2497;47.410;9.740;2023-06-04T01:54:08;15.40;99.90
4964;DHT22;2497;47.410;9.740;2023-06-04T01:56:35;15.30;99.90
4964;DHT22;2497;47.410;9.740;2023-06-04T01:59:02;15.30;99.90
4964;DHT22;2497;47.410;9.740;2023-06-04T02:01:30;15.20;99.90
4964;DHT22;2497;47.410;9.740;2023-06-04T02:03:57;15.20;99.90
4964;DHT22;2497;47.410;9.740;2023-06-04T02:06:26;15.10;99.90
4964;DHT22;2497;47.410;9.740;2023-06-04T02:08:55;15.00;99.90
4964;DHT22;2497;47.410;9.740;2023-06-04T02:11:23;14.80;99.90
4964;DHT22;2497;47.410;9.740;2023-06-04T02:13:50;14.70;99.90
4964;DHT22;2497;47.410;9.740;2023-06-04T02:16:17;14.70;99.90
4964;DHT22;2497;47.410;9.740;2023-06-04T02:18:45;14.60;99.90
4964;DHT22;2497;47.410;9.740;2023-06-04T02:21:12;14.50;99.90
4964;DHT22;2497;47.410;9.740;2023-06-04T02:23:41;14.60;99.90
4964;DHT22;2497;47.410;9.740;2023-06-04T02:26:08;14.70;99.90
4964;DHT22;2497;47.410;9.740;2023-06-04T02:28:36;14.80;99.90
4964;DHT22;2497;47.410;9.740;2023-06-04T02:31:03;14.80;99.90
4964;DHT22;2497;47.410;9.740;2023-06-04T02:33:30;14.90;99.90
4964;DHT22;2497;47.410;9.740;2023-06-04T02:35:58;14.80;99.90
4964;DHT22;2497;47.410;9.740;2023-06-04T02:38:26;14.80;99.90
4964;DHT22;2497;47.410;9.740;2023-06-04T02:40:54;14.80;99.90
4964;DHT22;2497;47.410;9.740;2023-06-04T02:43:21;14.70;99.90
4964;DHT22;2497;47.410;9.740;2023-06-04T02:45:49;14.70;99.90
4964;DHT22;2497;47.410;9.740;2023-06-04T02:48:16;14.80;99.90
4964;DHT22;2497;47.410;9.740;2023-06-04T02:50:43;14.80;99.90
4964;DHT22;2497;47.410;9.740;2023-06-04T02:53:11;14.80;99.90
4964;DHT22;2497;47.410;9.740;2023-06-04T02:55:38;14.80;99.90
4964;DHT22;2497;47.410;9.740;2023-06-04T02:58:07;14.80;99.90
4964;DHT22;2497;47.410;9.740;2023-06-04T03:00:35;14.80;99.90
4964;DHT22;2497;47.410;9.740;2023-06-04T03:03:02;14.90;99.90
4964;DHT22;2497;47.410;9.740;2023-06-04T03:05:29;14.90;99.90
4964;DHT22;2497;47.410;9.740;2023-06-04T03:08:00;14.80;99.90
4964;DHT22;2497;47.410;9.740;2023-06-04T03:10:28;14.90;99.90
4964;DHT22;2497;47.410;9.740;2023-06-04T03:12:55;14.80;99.90
4964;DHT22;2497;47.410;9.740;2023-06-04T03:15:24;14.80;99.90
4964;DHT22;2497;47.410;9.740;2023-06-04T03:17:51;14.80;99.90
4964;DHT22;2497;47.410;9.740;2023-06-04T03:20:18;14.70;99.90
4964;DHT22;2497;47.410;9.740;2023-06-04T03:22:49;14.60;99.90
4964;DHT22;2497;47.410;9.740;2023-06-04T03:25:17;14.50;99.90
4964;DHT22;2497;47.410;9.740;2023-06-04T03:27:44;14.40;99.90
4964;DHT22;2497;47.410;9.740;2023-06-04T03:30:11;14.40;99.90
4964;DHT22;2497;47.410;9.740;2023-06-04T03:32:40;14.30;99.90
4964;DHT22;2497;47.410;9.740;2023-06-04T03:35:09;14.30;99.90
4964;DHT22;2497;47.410;9.740;2023-06-04T03:37:36;14.30;99.90
4964;DHT22;2497;47.410;9.740;2023-06-04T03:40:06;14.30;99.90
4964;DHT22;2497;47.410;9.740;2023-06-04T03:42:34;14.30;99.90
4964;DHT22;2497;47.410;9.740;2023-06-04T03:45:01;14.40;99.90
4964;DHT22;2497;47.410;9.740;2023-06-04T03:47:28;14.40;99.90
4964;DHT22;2497;47.410;9.740;2023-06-04T03:49:57;14.40;99.90
4964;DHT22;2497;47.410;9.740;2023-06-04T03:52:24;14.40;99.90
4964;DHT22;2497;47.410;9.740;2023-06-04T03:54:52;14.50;99.90
4964;DHT22;2497;47.410;9.740;2023-06-04T03:57:19;14.70;99.90
4964;DHT22;2497;47.410;9.740;2023-06-04T03:59:46;14.80;99.90
4964;DHT22;2497;47.410;9.740;2023-06-04T04:02:14;14.90;99.90
4964;DHT22;2497;47.410;9.740;2023-06-04T04:04:41;14.90;99.90
4964;DHT22;2497;47.410;9.740;2023-06-04T04:07:10;14.80;99.90
4964;DHT22;2497;47.410;9.740;2023-06-04T04:09:37;14.80;99.90
4964;DHT22;2497;47.410;9.740;2023-06-04T04:12:05;14.80;99.90
4964;DHT22;2497;47.410;9.740;2023-06-04T04:14:32;14.70;99.90
4964;DHT22;2497;47.410;9.740;2023-06-04T04:16:59;14.70;99.90
4964;DHT22;2497;47.410;9.740;2023-06-04T04:19:26;14.60;99.90
4964;DHT22;2497;47.410;9.740;2023-06-04T04:21:54;14.60;99.90
4964;DHT22;2497;47.410;9.740;2023-06-04T04:24:26;14.60;99.90
4964;DHT22;2497;47.410;9.740;2023-06-04T04:26:54;14.60;99.90
4964;DHT22;2497;47.410;9.740;2023-06-04T04:29:21;14.60;99.90
4964;DHT22;2497;47.410;9.740;2023-06-04T04:31:50;14.60;99.90
4964;DHT22;2497;47.410;9.740;2023-06-04T04:34:18;14.70;99.90
4964;DHT22;2497;47.410;9.740;2023-06-04T04:36:47;14.70;99.90
4964;DHT22;2497;47.410;9.740;2023-06-04T04:39:18;14.80;99.90
4964;DHT22;2497;47.410;9.740;2023-06-04T04:41:47;14.90;99.90
4964;DHT22;2497;47.410;9.740;2023-06-04T04:44:14;14.90;99.90
4964;DHT22;2497;47.410;9.740;2023-06-04T04:46:41;15.00;99.90
4964;DHT22;2497;47.410;9.740;2023-06-04T04:49:09;15.00;99.90
4964;DHT22;2497;47.410;9.740;2023-06-04T04:51:36;15.10;99.90
4964;DHT22;2497;47.410;9.740;2023-06-04T04:54:03;15.10;99.90
4964;DHT22;2497;47.410;9.740;2023-06-04T04:56:33;15.20;99.90
4964;DHT22;2497;47.410;9.740;2023-06-04T04:59:02;15.20;99.90
4964;DHT22;2497;47.410;9.740;2023-06-04T05:01:29;15.10;99.90
4964;DHT22;2497;47.410;9.740;2023-06-04T05:03:56;15.20;99.90
4964;DHT22;2497;47.410;9.740;2023-06-04T05:06:23;15.30;99.90
4964;DHT22;2497;47.410;9.740;2023-06-04T05:08:50;15.30;99.90
4964;DHT22;2497;47.410;9.740;2023-06-04T05:11:18;15.40;99.90
4964;DHT22;2497;47.410;9.740;2023-06-04T05:13:45;15.40;99.90
4964;DHT22;2497;47.410;9.740;2023-06-04T05:16:14;15.40;99.90
4964;DHT22;2497;47.410;9.740;2023-06-04T05:18:41;15.40;99.90
4964;DHT22;2497;47.410;9.740;2023-06-04T05:21:10;15.40;99.90
4964;DHT22;2497;47.410;9.740;2023-06-04T05:23:38;15.40;99.90
4964;DHT22;2497;47.410;9.740;2023-06-04T05:26:05;15.40;99.90
4964;DHT22;2497;47.410;9.740;2023-06-04T05:28:32;15.60;99.90
4964;DHT22;2497;47.410;9.740;2023-06-04T05:31:00;15.80;99.90
4964;DHT22;2497;47.410;9.740;2023-06-04T05:33:30;15.90;99.90
4964;DHT22;2497;47.410;9.740;2023-06-04T05:35:57;15.90;99.90
4964;DHT22;2497;47.410;9.740;2023-06-04T05:38:25;16.00;99.90
4964;DHT22;2497;47.410;9.740;2023-06-04T05:40:53;16.20;99.90
4964;DHT22;2497;47.410;9.740;2023-06-04T05:43:21;16.30;99.90
4964;DHT22;2497;47.410;9.740;2023-06-04T05:45:48;16.30;99.90
4964;DHT22;2497;47.410;9.740;2023-06-04T05:48:17;16.30;99.90
4964;DHT22;2497;47.410;9.740;2023-06-04T05:50:46;16.40;99.90
4964;DHT22;2497;47.410;9.740;2023-06-04T05:53:13;16.50;99.90
4964;DHT22;2497;47.410;9.740;2023-06-04T05:55:40;16.50;99.90
4964;DHT22;2497;47.410;9.740;2023-06-04T05:58:07;16.40;99.90
4964;DHT22;2497;47.410;9.740;2023-06-04T06:00:34;16.40;99.90
4964;DHT22;2497;47.410;9.740;2023-06-04T06:03:02;16.40;99.90
4964;DHT22;2497;47.410;9.740;2023-06-04T06:05:32;16.40;99.90
4964;DHT22;2497;47.410;9.740;2023-06-04T06:08:00;16.40;99.90
4964;DHT22;2497;47.410;9.740;2023-06-04T06:10:28;16.50;99.90
4964;DHT22;2497;47.410;9.740;2023-06-04T06:12:55;16.50;99.90
4964;DHT22;2497;47.410;9.740;2023-06-04T06:15:22;16.50;99.90
4964;DHT22;2497;47.410;9.740;2023-06-04T06:17:49;16.60;99.90
4964;DHT22;2497;47.410;9.740;2023-06-04T06:20:17;16.70;99.90
4964;DHT22;2497;47.410;9.740;2023-06-04T06:22:45;16.90;99.90
4964;DHT22;2497;47.410;9.740;2023-06-04T06:25:14;16.80;99.90
4964;DHT22;2497;47.410;9.740;2023-06-04T06:27:41;17.00;99.90
4964;DHT22;2497;47.410;9.740;2023-06-04T06:30:09;17.00;99.90
4964;DHT22;2497;47.410;9.740;2023-06-04T06:32:36;17.20;99.90
4964;DHT22;2497;47.410;9.740;2023-06-04T06:35:04;17.30;99.90
4964;DHT22;2497;47.410;9.740;2023-06-04T06:37:31;17.40;99.90
4964;DHT22;2497;47.410;9.740;2023-06-04T06:39:58;17.60;99.90
4964;DHT22;2497;47.410;9.740;2023-06-04T06:42:32;17.70;99.90
4964;DHT22;2497;47.410;9.740;2023-06-04T06:44:59;17.80;99.90
4964;DHT22;2497;47.410;9.740;2023-06-04T06:47:27;18.10;99.90
4964;DHT22;2497;47.410;9.740;2023-06-04T06:49:54;18.20;99.90
4964;DHT22;2497;47.410;9.740;2023-06-04T06:52:21;18.30;99.90
4964;DHT22;2497;47.410;9.740;2023-06-04T06:54:48;18.20;99.90
4964;DHT22;2497;47.410;9.740;2023-06-04T06:57:15;18.10;99.90
4964;DHT22;2497;47.410;9.740;2023-06-04T06:59:44;18.10;99.90
4964;DHT22;2497;47.410;9.740;2023-06-04T07:02:11;18.50;99.90
4964;DHT22;2497;47.410;9.740;2023-06-04T07:04:38;18.60;99.90
4964;DHT22;2497;47.410;9.740;2023-06-04T07:07:05;18.60;99.90
4964;DHT22;2497;47.410;9.740;2023-06-04T07:09:32;18.40;99.90
4964;DHT22;2497;47.410;9.740;2023-06-04T07:12:00;18.30;99.90
4964;DHT22;2497;47.410;9.740;2023-06-04T07:14:27;18.30;99.90
4964;DHT22;2497;47.410;9.740;2023-06-04T07:16:56;18.30;99.90
4964;DHT22;2497;47.410;9.740;2023-06-04T07:19:23;18.40;99.90
4964;DHT22;2497;47.410;9.740;2023-06-04T07:21:50;18.60;99.90
4964;DHT22;2497;47.410;9.740;2023-06-04T07:24:17;18.80;99.90
4964;DHT22;2497;47.410;9.740;2023-06-04T07:26:44;19.00;99.90
4964;DHT22;2497;47.410;9.740;2023-06-04T07:29:11;19.10;99.90
4964;DHT22;2497;47.410;9.740;2023-06-04T07:31:38;19.20;99.90
4964;DHT22;2497;47.410;9.740;2023-06-04T07:34:07;19.10;99.90
4964;DHT22;2497;47.410;9.740;2023-06-04T07:36:36;19.20;99.90
4964;DHT22;2497;47.410;9.740;2023-06-04T07:39:05;19.00;99.90
4964;DHT22;2497;47.410;9.740;2023-06-04T07:41:32;18.90;99.90
4964;DHT22;2497;47.410;9.740;2023-06-04T07:43:59;18.70;99.90
4964;DHT22;2497;47.410;9.740;2023-06-04T07:46:27;18.90;99.90
4964;DHT22;2497;47.410;9.740;2023-06-04T07:48:54;18.90;99.90
4964;DHT22;2497;47.410;9.740;2023-06-04T07:51:23;19.00;99.90
4964;DHT22;2497;47.410;9.740;2023-06-04T07:53:51;19.20;99.90
4964;DHT22;2497;47.410;9.740;2023-06-04T07:56:18;19.20;99.90
4964;DHT22;2497;47.410;9.740;2023-06-04T07:58:46;19.30;99.90
4964;DHT22;2497;47.410;9.740;2023-06-04T08:01:13;19.20;99.90
4964;DHT22;2497;47.410;9.740;2023-06-04T08:03:41;19.10;99.90
4964;DHT22;2497;47.410;9.740;2023-06-04T08:06:09;19.00;99.90
4964;DHT22;2497;47.410;9.740;2023-06-04T08:08:37;19.00;99.90
4964;DHT22;2497;47.410;9.740;2023-06-04T08:11:05;19.00;99.90
4964;DHT22;2497;47.410;9.740;2023-06-04T08:13:32;19.10;99.90
4964;DHT22;2497;47.410;9.740;2023-06-04T08:16:00;19.30;99.90
4964;DHT22;2497;47.410;9.740;2023-06-04T08:18:27;19.80;99.90
4964;DHT22;2497;47.410;9.740;2023-06-04T08:20:54;20.20;99.90
4964;DHT22;2497;47.410;9.740;2023-06-04T08:23:22;20.50;99.90
4964;DHT22;2497;47.410;9.740;2023-06-04T08:25:52;20.70;99.90
4964;DHT22;2497;47.410;9.740;2023-06-04T08:28:19;21.00;99.90
4964;DHT22;2497;47.410;9.740;2023-06-04T08:30:46;21.10;99.90
4964;DHT22;2497;47.410;9.740;2023-06-04T08:33:14;20.80;99.90
4964;DHT22;2497;47.410;9.740;2023-06-04T08:35:41;21.00;99.90
4964;DHT22;2497;47.410;9.740;2023-06-04T08:38:09;21.00;99.90
4964;DHT22;2497;47.410;9.740;2023-06-04T08:40:36;21.40;99.90
4964;DHT22;2497;47.410;9.740;2023-06-04T08:43:05;21.80;99.90
4964;DHT22;2497;47.410;9.740;2023-06-04T08:45:33;22.00;99.90
4964;DHT22;2497;47.410;9.740;2023-06-04T08:48:08;21.80;99.90
4964;DHT22;2497;47.410;9.740;2023-06-04T08:50:36;22.10;99.90
4964;DHT22;2497;47.410;9.740;2023-06-04T08:53:07;22.20;99.90
4964;DHT22;2497;47.410;9.740;2023-06-04T08:55:35;22.10;99.90
4964;DHT22;2497;47.410;9.740;2023-06-04T08:58:02;22.70;99.90
4964;DHT22;2497;47.410;9.740;2023-06-04T09:00:35;22.60;99.90
4964;DHT22;2497;47.410;9.740;2023-06-04T09:03:03;22.50;99.90
4964;DHT22;2497;47.410;9.740;2023-06-04T09:05:30;22.70;99.90
4964;DHT22;2497;47.410;9.740;2023-06-04T09:08:01;23.30;99.90
4964;DHT22;2497;47.410;9.740;2023-06-04T09:10:29;22.80;99.90
4964;DHT22;2497;47.410;9.740;2023-06-04T09:13:01;22.50;99.90
4964;DHT22;2497;47.410;9.740;2023-06-04T09:15:29;22.20;99.90
4964;DHT22;2497;47.410;9.740;2023-06-04T09:18:01;22.60;99.90
4964;DHT22;2497;47.410;9.740;2023-06-04T09:20:28;22.30;99.90
4964;DHT22;2497;47.410;9.740;2023-06-04T09:22:55;22.10;99.90
4964;DHT22;2497;47.410;9.740;2023-06-04T09:25:23;22.40;99.90
4964;DHT22;2497;47.410;9.740;2023-06-04T09:27:56;22.40;99.90
4964;DHT22;2497;47.410;9.740;2023-06-04T09:30:24;22.40;99.90
4964;DHT22;2497;47.410;9.740;2023-06-04T09:32:52;22.70;99.90
4964;DHT22;2497;47.410;9.740;2023-06-04T09:38:45;22.90;99.90
4964;DHT22;2497;47.410;9.740;2023-06-04T09:41:16;23.10;99.90
4964;DHT22;2497;47.410;9.740;2023-06-04T09:46:36;23.40;99.90
4964;DHT22;2497;47.410;9.740;2023-06-04T09:49:05;23.90;99.90
4964;DHT22;2497;47.410;9.740;2023-06-04T09:51:32;24.00;99.90
4964;DHT22;2497;47.410;9.740;2023-06-04T09:54:03;24.30;99.90
4964;DHT22;2497;47.410;9.740;2023-06-04T09:56:39;25.00;99.90
4964;DHT22;2497;47.410;9.740;2023-06-04T09:59:08;24.80;99.90
4964;DHT22;2497;47.410;9.740;2023-06-04T10:01:39;25.00;99.90
4964;DHT22;2497;47.410;9.740;2023-06-04T10:04:07;25.00;99.90
4964;DHT22;2497;47.410;9.740;2023-06-04T10:06:39;24.70;99.90
4964;DHT22;2497;47.410;9.740;2023-06-04T10:09:08;25.40;99.90
4964;DHT22;2497;47.410;9.740;2023-06-04T10:11:40;25.80;99.90
4964;DHT22;2497;47.410;9.740;2023-06-04T10:14:15;25.60;99.90
4964;DHT22;2497;47.410;9.740;2023-06-04T10:16:45;25.50;99.90
4964;DHT22;2497;47.410;9.740;2023-06-04T10:19:14;25.40;99.90
4964;DHT22;2497;47.410;9.740;2023-06-04T10:21:43;25.40;99.90
4964;DHT22;2497;47.410;9.740;2023-06-04T10:24:12;25.60;99.90
4964;DHT22;2497;47.410;9.740;2023-06-04T10:26:40;25.70;99.90
4964;DHT22;2497;47.410;9.740;2023-06-04T10:29:09;25.60;99.90
4964;DHT22;2497;47.410;9.740;2023-06-04T10:31:37;25.30;99.90
4964;DHT22;2497;47.410;9.740;2023-06-04T10:34:04;24.90;99.90
4964;DHT22;2497;47.410;9.740;2023-06-04T10:36:43;24.50;99.90
4964;DHT22;2497;47.410;9.740;2023-06-04T10:39:25;24.60;99.90
4964;DHT22;2497;47.410;9.740;2023-06-04T10:41:58;24.50;99.90
4964;DHT22;2497;47.410;9.740;2023-06-04T10:44:26;24.30;99.90
4964;DHT22;2497;47.410;9.740;2023-06-04T10:46:53;24.40;99.90
4964;DHT22;2497;47.410;9.740;2023-06-04T10:49:27;24.20;99.90
4964;DHT22;2497;47.410;9.740;2023-06-04T10:51:55;24.40;99.90
4964;DHT22;2497;47.410;9.740;2023-06-04T10:54:25;24.80;99.90
4964;DHT22;2497;47.410;9.740;2023-06-04T10:56:53;24.70;99.90
4964;DHT22;2497;47.410;9.740;2023-06-04T10:59:20;24.90;99.90
4964;DHT22;2497;47.410;9.740;2023-06-04T11:01:49;24.90;99.90
4964;DHT22;2497;47.410;9.740;2023-06-04T11:04:21;25.00;99.90
4964;DHT22;2497;47.410;9.740;2023-06-04T11:07:07;25.10;99.90
4964;DHT22;2497;47.410;9.740;2023-06-04T11:09:47;25.90;99.90
4964;DHT22;2497;47.410;9.740;2023-06-04T11:12:15;25.80;99.90
4964;DHT22;2497;47.410;9.740;2023-06-04T11:14:53;25.20;99.90
4964;DHT22;2497;47.410;9.740;2023-06-04T11:17:24;24.90;99.90
4964;DHT22;2497;47.410;9.740;2023-06-04T11:19:51;25.00;99.90
4964;DHT22;2497;47.410;9.740;2023-06-04T11:22:25;25.00;99.90
4964;DHT22;2497;47.410;9.740;2023-06-04T11:24:58;25.20;99.90
4964;DHT22;2497;47.410;9.740;2023-06-04T11:27:27;25.30;99.90
4964;DHT22;2497;47.410;9.740;2023-06-04T11:29:55;25.10;99.90
4964;DHT22;2497;47.410;9.740;2023-06-04T11:32:36;25.10;99.90
4964;DHT22;2497;47.410;9.740;2023-06-04T11:35:04;24.50;99.90
4964;DHT22;2497;47.410;9.740;2023-06-04T11:38:07;24.40;99.90
4964;DHT22;2497;47.410;9.740;2023-06-04T11:41:02;24.20;99.90
4964;DHT22;2497;47.410;9.740;2023-06-04T11:43:32;23.90;99.90
4964;DHT22;2497;47.410;9.740;2023-06-04T11:46:07;23.80;99.90
4964;DHT22;2497;47.410;9.740;2023-06-04T11:48:50;24.00;99.90
4964;DHT22;2497;47.410;9.740;2023-06-04T11:51:20;23.90;99.90
4964;DHT22;2497;47.410;9.740;2023-06-04T11:53:50;23.80;99.90
4964;DHT22;2497;47.410;9.740;2023-06-04T11:56:19;23.70;99.90
4964;DHT22;2497;47.410;9.740;2023-06-04T11:59:23;23.50;99.90
4964;DHT22;2497;47.410;9.740;2023-06-04T12:01:50;23.70;99.90
4964;DHT22;2497;47.410;9.740;2023-06-04T12:04:29;23.70;99.90
4964;DHT22;2497;47.410;9.740;2023-06-04T12:07:00;23.70;99.90
4964;DHT22;2497;47.410;9.740;2023-06-04T12:09:29;23.80;99.90
4964;DHT22;2497;47.410;9.740;2023-06-04T12:12:00;23.60;99.90
4964;DHT22;2497;47.410;9.740;2023-06-04T12:14:28;23.70;99.90
4964;DHT22;2497;47.410;9.740;2023-06-04T12:16:56;24.10;99.90
4964;DHT22;2497;47.410;9.740;2023-06-04T12:19:24;24.20;99.90
4964;DHT22;2497;47.410;9.740;2023-06-04T12:22:01;24.30;99.90
4964;DHT22;2497;47.410;9.740;2023-06-04T12:24:29;24.70;99.90
4964;DHT22;2497;47.410;9.740;2023-06-04T12:27:05;24.50;99.90
4964;DHT22;2497;47.410;9.740;2023-06-04T12:29:34;24.30;99.90
4964;DHT22;2497;47.410;9.740;2023-06-04T12:32:03;24.10;99.90
4964;DHT22;2497;47.410;9.740;2023-06-04T12:34:31;24.20;99.90
4964;DHT22;2497;47.410;9.740;2023-06-04T12:37:03;24.40;99.90
4964;DHT22;2497;47.410;9.740;2023-06-04T12:39:32;24.80;99.90
4964;DHT22;2497;47.410;9.740;2023-06-04T12:41:59;24.60;99.90
4964;DHT22;2497;47.410;9.740;2023-06-04T12:44:28;24.70;99.90
4964;DHT22;2497;47.410;9.740;2023-06-04T12:46:56;24.30;99.90
4964;DHT22;2497;47.410;9.740;2023-06-04T12:49:23;24.30;99.90
4964;DHT22;2497;47.410;9.740;2023-06-04T12:51:51;24.20;99.90
4964;DHT22;2497;47.410;9.740;2023-06-04T12:54:18;24.10;99.90
4964;DHT22;2497;47.410;9.740;2023-06-04T12:56:45;24.40;99.90
4964;DHT22;2497;47.410;9.740;2023-06-04T12:59:13;24.40;99.90
4964;DHT22;2497;47.410;9.740;2023-06-04T13:01:41;24.40;99.90
4964;DHT22;2497;47.410;9.740;2023-06-04T13:04:08;24.40;99.90
4964;DHT22;2497;47.410;9.740;2023-06-04T13:06:36;24.30;99.90
4964;DHT22;2497;47.410;9.740;2023-06-04T13:09:04;24.40;99.90
4964;DHT22;2497;47.410;9.740;2023-06-04T13:11:35;24.20;99.90
4964;DHT22;2497;47.410;9.740;2023-06-04T13:14:02;23.90;99.90
4964;DHT22;2497;47.410;9.740;2023-06-04T13:16:29;24.10;99.90
4964;DHT22;2497;47.410;9.740;2023-06-04T13:18:57;24.30;99.90
4964;DHT22;2497;47.410;9.740;2023-06-04T13:21:28;24.30;99.90
4964;DHT22;2497;47.410;9.740;2023-06-04T13:23:57;24.10;99.90
4964;DHT22;2497;47.410;9.740;2023-06-04T13:26:27;24.20;99.90
4964;DHT22;2497;47.410;9.740;2023-06-04T13:28:58;24.10;99.90
4964;DHT22;2497;47.410;9.740;2023-06-04T13:31:25;24.10;99.90
4964;DHT22;2497;47.410;9.740;2023-06-04T13:33:52;23.90;99.90
4964;DHT22;2497;47.410;9.740;2023-06-04T13:36:20;24.00;99.90
4964;DHT22;2497;47.410;9.740;2023-06-04T13:38:48;24.00;99.90
4964;DHT22;2497;47.410;9.740;2023-06-04T13:41:18;24.10;99.90
4964;DHT22;2497;47.410;9.740;2023-06-04T13:43:46;24.20;99.90
4964;DHT22;2497;47.410;9.740;2023-06-04T13:46:13;24.10;99.90
4964;DHT22;2497;47.410;9.740;2023-06-04T13:48:41;24.30;99.90
4964;DHT22;2497;47.410;9.740;2023-06-04T13:51:08;24.40;99.90
4964;DHT22;2497;47.410;9.740;2023-06-04T13:53:36;24.40;99.90
4964;DHT22;2497;47.410;9.740;2023-06-04T13:56:04;24.70;99.90
4964;DHT22;2497;47.410;9.740;2023-06-04T13:58:31;24.80;99.90
4964;DHT22;2497;47.410;9.740;2023-06-04T14:00:58;24.90;99.90
4964;DHT22;2497;47.410;9.740;2023-06-04T14:03:25;24.90;99.90
4964;DHT22;2497;47.410;9.740;2023-06-04T14:05:54;25.00;99.90
4964;DHT22;2497;47.410;9.740;2023-06-04T14:08:22;25.20;99.90
4964;DHT22;2497;47.410;9.740;2023-06-04T14:17:12;25.30;99.90
4964;DHT22;2497;47.410;9.740;2023-06-04T14:19:59;25.20;99.90
4964;DHT22;2497;47.410;9.740;2023-06-04T14:22:50;25.00;99.90
4964;DHT22;2497;47.410;9.740;2023-06-04T14:25:50;25.00;99.90
4964;DHT22;2497;47.410;9.740;2023-06-04T14:28:29;25.10;99.90
4964;DHT22;2497;47.410;9.740;2023-06-04T14:31:19;25.10;99.90
4964;DHT22;2497;47.410;9.740;2023-06-04T14:33:47;25.00;99.90
4964;DHT22;2497;47.410;9.740;2023-06-04T14:36:15;24.60;99.90
4964;DHT22;2497;47.410;9.740;2023-06-04T14:38:42;24.00;99.90
4964;DHT22;2497;47.410;9.740;2023-06-04T14:41:09;24.00;99.90
4964;DHT22;2497;47.410;9.740;2023-06-04T14:43:36;23.90;99.90
4964;DHT22;2497;47.410;9.740;2023-06-04T14:46:04;23.70;99.90
4964;DHT22;2497;47.410;9.740;2023-06-04T14:48:31;23.40;99.90
4964;DHT22;2497;47.410;9.740;2023-06-04T14:51:00;23.00;99.90
4964;DHT22;2497;47.410;9.740;2023-06-04T14:53:30;23.20;99.90
4964;DHT22;2497;47.410;9.740;2023-06-04T14:55:59;23.30;99.90
4964;DHT22;2497;47.410;9.740;2023-06-04T14:58:26;23.10;99.90
4964;DHT22;2497;47.410;9.740;2023-06-04T15:00:53;23.10;99.90
4964;DHT22;2497;47.410;9.740;2023-06-04T15:06:18;22.80;99.90
4964;DHT22;2497;47.410;9.740;2023-06-04T15:08:46;22.50;99.90
4964;DHT22;2497;47.410;9.740;2023-06-04T15:11:30;22.40;99.90
4964;DHT22;2497;47.410;9.740;2023-06-04T15:14:09;22.60;99.90
4964;DHT22;2497;47.410;9.740;2023-06-04T15:16:36;22.80;99.90
4964;DHT22;2497;47.410;9.740;2023-06-04T15:19:03;22.70;99.90
4964;DHT22;2497;47.410;9.740;2023-06-04T15:21:50;22.60;99.90
4964;DHT22;2497;47.410;9.740;2023-06-04T15:24:17;22.50;99.90
4964;DHT22;2497;47.410;9.740;2023-06-04T15:26:46;22.40;99.90
4964;DHT22;2497;47.410;9.740;2023-06-04T15:29:13;22.60;99.90
4964;DHT22;2497;47.410;9.740;2023-06-04T15:31:40;23.30;99.90
4964;DHT22;2497;47.410;9.740;2023-06-04T15:34:17;23.40;99.90
4964;DHT22;2497;47.410;9.740;2023-06-04T15:37:03;23.50;99.90
4964;DHT22;2497;47.410;9.740;2023-06-04T15:39:30;23.30;99.90
4964;DHT22;2497;47.410;9.740;2023-06-04T15:41:57;23.70;99.90
4964;DHT22;2497;47.410;9.740;2023-06-04T15:44:24;23.80;99.90
4964;DHT22;2497;47.410;9.740;2023-06-04T15:46:54;24.20;99.90
4964;DHT22;2497;47.410;9.740;2023-06-04T15:49:24;24.10;99.90
4964;DHT22;2497;47.410;9.740;2023-06-04T15:51:53;24.40;99.90
4964;DHT22;2497;47.410;9.740;2023-06-04T15:54:25;24.30;99.90
4964;DHT22;2497;47.410;9.740;2023-06-04T15:56:52;24.70;99.90
4964;DHT22;2497;47.410;9.740;2023-06-04T15:59:20;24.60;99.90
4964;DHT22;2497;47.410;9.740;2023-06-04T16:01:47;24.50;99.90
4964;DHT22;2497;47.410;9.740;2023-06-04T16:04:15;24.60;99.90
4964;DHT22;2497;47.410;9.740;2023-06-04T16:06:42;24.50;99.90
4964;DHT22;2497;47.410;9.740;2023-06-04T16:09:09;24.20;99.90
4964;DHT22;2497;47.410;9.740;2023-06-04T16:11:38;24.30;99.90
4964;DHT22;2497;47.410;9.740;2023-06-04T16:14:05;24.30;99.90
4964;DHT22;2497;47.410;9.740;2023-06-04T16:16:32;24.00;99.90
4964;DHT22;2497;47.410;9.740;2023-06-04T16:18:59;24.00;99.90
4964;DHT22;2497;47.410;9.740;2023-06-04T16:21:26;23.90;99.90
4964;DHT22;2497;47.410;9.740;2023-06-04T16:23:54;23.70;99.90
4964;DHT22;2497;47.410;9.740;2023-06-04T16:26:21;23.60;99.90
4964;DHT22;2497;47.410;9.740;2023-06-04T16:28:50;23.50;99.90
4964;DHT22;2497;47.410;9.740;2023-06-04T16:31:17;23.30;99.90